Delmar, Alabama
Current Conditions -  °F | °C
As of 1:56 PM on Thursday 23 Oct 2014 (Local Time) from K1M4 Reporting Station
Clear Clear  
Wind Chill: 19°   Ceiling: Unl
Heat Index: 19°   Visibility: 10mi
Dew Point:   Wind: 6mph
Humidity: 40%   Direction: 20°NNE
Pressure: 30.13"   Gusts: NA
Location:  34.17°N, 87.61°W
Report Text: K1M4 231856Z AUTO 02005KT 10SM CLR 19/06 A3013 RMK AO2 T01940055 SLP213
Loading
Personal Weather Stations






























Interactive Weather Map
Tropical Storm Tracking
New forecast layout! Learn more

10-Day Weather Forecast

Advertisements
Track Severe Weather on mobile